Data for 02/08/2009

Time Sea-Level Adjusted Pressure Absolute Pressure Temperature Relative Humidity Dew Point   
(mb) (inHg) (mb) (inHg) (C) (F) (%) (C) (F)
00:05 1018 30.06 848 25.04 -2.8 26.9 69 -7.7 18.1
00:10 1018 30.06 848 25.04 -3 26.6 70 -7.7 18.1
00:15 1018 30.06 848 25.04 -3 26.6 69 -7.9 17.8
00:20 1018 30.06 847 25.01 -2.8 27 68 -7.8 17.9
00:25 1018 30.06 847 25.01 -2.8 26.9 69 -7.8 18
00:30 1018 30.06 847 25.01 -2.9 26.8 69 -7.9 17.8
00:35 1018 30.06 847 25.01 -3.1 26.4 70 -7.9 17.8
00:40 1018 30.06 847 25.01 -3.4 26 70 -8.1 17.5
00:45 1018 30.06 847 25.01 -3.3 26 70 -8 17.5
00:50 1018 30.06 847 25.01 -3.2 26.2 69 -8.1 17.4
00:55 1018 30.06 847 25.01 -3 26.5 68 -8.1 17.4
01:00 1018 30.06 847 25.01 -2.8 26.9 67 -8.1 17.5
01:05 1018 30.06 847 25.01 -2.7 27.2 67 -8.1 17.5
01:10 1018 30.06 847 25.01 -2.5 27.6 65 -8.1 17.4
01:15 1018 30.06 847 25.01 -2.5 27.5 66 -8.1 17.5
01:20 1018 30.06 847 25.01 -2.6 27.4 66 -8.1 17.4
01:25 1018 30.06 847 25.01 -2.8 27 67 -8.1 17.5
01:30 1018 30.06 847 25.01 -2.8 27 67 -8.2 17.3
01:35 1018 30.06 847 25.01 -2.9 26.8 67 -8.2 17.3
01:40 1018 30.06 847 25.01 -3 26.7 67 -8.2 17.2
01:45 1017 30.03 847 25.01 -3 26.6 67 -8.3 17.1
01:50 1017 30.03 847 25.01 -3 26.6 67 -8.2 17.2
01:55 1017 30.03 847 25.01 -2.9 26.7 67 -8.3 17
02:00 1017 30.03 846 24.98 -3.1 26.5 68 -8.2 17.2
02:05 1017 30.03 846 24.98 -3.3 26 68 -8.3 17
02:10 1017 30.03 846 24.98 -3.4 26 68 -8.4 16.9
02:15 1017 30.03 846 24.98 -3.2 26.2 68 -8.4 16.9
02:20 1017 30.03 846 24.98 -3.3 26 68 -8.4 16.8
02:25 1017 30.03 846 24.98 -3.2 26.3 67 -8.5 16.7
02:30 1017 30.03 846 24.98 -3.2 26.3 67 -8.4 16.8
02:35 1017 30.03 846 24.98 -3.2 26.2 67 -8.6 16.6
02:40 1017 30.03 846 24.98 -3.4 25.8 67 -8.6 16.5
02:45 1017 30.03 846 24.98 -3.7 25.4 69 -8.6 16.5
02:50 1017 30.03 846 24.98 -3.9 25 69 -8.8 16.1
02:55 1017 30.03 846 24.98 -3.9 24.9 69 -8.9 16.1
03:00 1017 30.03 846 24.98 -4 24.9 69 -8.8 16.1
03:05 1016 30 846 24.98 -4.1 24.7 69 -8.9 15.9
03:10 1016 30 846 24.98 -3.7 25.3 66 -9.1 15.5
03:15 1016 30 845 24.95 -3 26.5 65 -8.8 16.2
03:20 1016 30 845 24.95 -3.1 26.5 65 -8.8 16.2
03:25 1016 30 845 24.95 -2.8 27 64 -8.7 16.3
03:30 1016 30 845 24.95 -2.8 27 64 -8.6 16.5
03:35 1016 30 845 24.95 -2.9 26.7 65 -8.7 16.4
03:40 1016 30 845 24.95 -2.9 26.7 65 -8.6 16.5
03:45 1016 30 845 24.95 -3 26.5 65 -8.7 16.3
03:50 1016 30 845 24.95 -3.2 26.3 66 -8.7 16.4
03:55 1016 30 845 24.95 -3.4 25.9 67 -8.6 16.5
04:00 1015 29.97 845 24.95 -3.4 25.8 66 -8.8 16.1
04:05 1015 29.97 845 24.95 -3.2 26.3 64 -9 15.7
04:10 1015 29.97 845 24.95 -2.9 26.8 63 -8.9 16
04:15 1015 29.97 844 24.92 -2.7 27.1 64 -8.7 16.4
04:20 1015 29.97 844 24.92 -3 26.7 65 -8.6 16.4
04:25 1015 29.97 844 24.92 -3.2 26.2 66 -8.6 16.5
04:30 1015 29.97 844 24.92 -3.3 26.1 67 -8.7 16.4
04:35 1015 29.97 844 24.92 -3.4 25.9 67 -8.8 16.2
04:40 1015 29.97 844 24.92 -3.8 25.2 68 -8.9 16
04:45 1015 29.97 844 24.92 -4.1 24.6 69 -8.9 15.9
04:50 1015 29.97 844 24.92 -4.1 24.7 69 -9 15.8
04:55 1015 29.97 844 24.92 -4 24.8 68 -9.1 15.7
05:00 1015 29.97 844 24.92 -3.9 25 67 -9.1 15.6
05:05 1015 29.97 844 24.92 -3.9 25 68 -9 15.7
05:10 1015 29.97 844 24.92 -4.1 24.6 68 -9.1 15.6
05:15 1015 29.97 844 24.92 -4.2 24.5 68 -9.2 15.5
05:20 1014 29.94 844 24.92 -4.2 24.4 68 -9.2 15.4
05:25 1014 29.94 844 24.92 -4.5 23.9 70 -9.2 15.5
05:30 1014 29.94 844 24.92 -4.6 23.8 70 -9.3 15.3
05:35 1014 29.94 844 24.92 -4.8 23.3 71 -9.3 15.2
05:40 1014 29.94 844 24.92 -5.4 22.4 73 -9.4 15
05:45 1014 29.94 843 24.89 -5.1 22.8 71 -9.5 14.9
05:50 1014 29.94 843 24.89 -4.7 23.5 70 -9.3 15.2
05:55 1014 29.94 843 24.89 -4.5 23.9 69 -9.3 15.2
06:00 1014 29.94 843 24.89 -4.5 23.9 69 -9.3 15.2
06:05 1014 29.94 843 24.89 -4.6 23.7 70 -9.3 15.3
06:10 1014 29.94 843 24.89 -5 23 71 -9.4 15
06:15 1014 29.94 843 24.89 -5.4 22.3 72 -9.6 14.7
06:20 1014 29.94 843 24.89 -5.1 22.8 71 -9.5 14.9
06:25 1014 29.94 843 24.89 -4.6 23.6 69 -9.5 14.9
06:30 1014 29.94 843 24.89 -4.5 23.9 67 -9.7 14.5
06:35 1014 29.94 843 24.89 -4.3 24.3 66 -9.7 14.6
06:40 1014 29.94 843 24.89 -4.8 23.3 68 -9.9 14.2
06:45 1014 29.94 843 24.89 -5.1 22.9 69 -9.9 14.2
06:50 1014 29.94 843 24.89 -5.4 22.3 70 -10 14
06:55 1014 29.94 843 24.89 -5.6 21.9 71 -10.1 13.8
07:00 1014 29.94 843 24.89 -6.1 21.1 73 -10.2 13.7
07:05 1014 29.94 843 24.89 -6.2 20.9 73 -10.3 13.4
07:10 1014 29.94 843 24.89 -6.4 20.6 74 -10.3 13.4
07:15 1014 29.94 843 24.89 -6.6 20.1 74 -10.5 13.2
07:20 1013 29.91 843 24.89 -6.4 20.5 74 -10.3 13.5
07:25 1013 29.91 843 24.89 -6.1 21 75 -9.9 14.1
07:30 1013 29.91 843 24.89 -5.7 21.7 72 -9.9 14.2
07:35 1013 29.91 843 24.89 -5.8 21.5 73 -9.8 14.3
07:40 1013 29.91 843 24.89 -6 21.1 74 -9.9 14.2
07:45 1013 29.91 843 24.89 -6 21.3 74 -9.9 14.1
07:50 1013 29.91 843 24.89 -5.8 21.6 73 -9.9 14.2
07:55 1013 29.91 842 24.86 -5.4 22.2 72 -9.8 14.4
08:00 1013 29.91 842 24.86 -5.3 22.5 71 -9.8 14.4
08:05 1013 29.91 842 24.86 -4.9 23.3 68 -9.9 14.2
08:10 1013 29.91 842 24.86 -4.2 24.4 65 -9.8 14.3
08:15 1013 29.91 842 24.86 -5 23.1 68 -9.9 14.1
08:20 1013 29.91 842 24.86 -6 21.2 73 -10.1 13.8
08:25 1013 29.91 842 24.86 -5.7 21.8 69 -10.6 13
08:30 1013 29.91 842 24.86 -5.3 22.4 68 -10.3 13.5
08:35 1013 29.91 842 24.86 -5.1 22.9 66 -10.4 13.2
08:40 1013 29.91 842 24.86 -4.6 23.7 64 -10.3 13.4
08:45 1013 29.91 842 24.86 -4.4 24 64 -10.2 13.7
08:50 1013 29.91 842 24.86 -4.3 24.2 64 -10.1 13.9
08:55 1013 29.91 842 24.86 -4.2 24.4 65 -9.9 14.2
09:00 1013 29.91 842 24.86 -4.1 24.7 63 -10 14
09:05 1013 29.91 842 24.86 -3.6 25.5 62 -9.9 14.1
09:10 1013 29.91 842 24.86 -3.2 26.2 61 -9.8 14.4
09:15 1013 29.91 842 24.86 -2.8 26.9 59 -9.7 14.5
09:20 1012 29.88 842 24.86 -2.7 27.1 59 -9.7 14.6
09:25 1012 29.88 842 24.86 -2.2 28.1 56 -9.8 14.4
09:30 1012 29.88 842 24.86 -1.6 29.2 54 -9.7 14.5
09:35 1012 29.88 842 24.86 -0.7 30.7 53 -9.2 15.4
09:40 1012 29.88 842 24.86 -0.7 30.7 51 -9.6 14.7
09:45 1012 29.88 841 24.83 -0.4 31.3 52 -9 15.7
09:50 1012 29.88 841 24.83 0.1 32.2 51 -9 15.9
09:55 1012 29.88 841 24.83 0.3 32.6 51 -8.5 16.6
10:00 1012 29.88 841 24.83 0.5 32.9 51 -8.5 16.8
10:05 1012 29.88 841 24.83 0.3 32.5 50 -8.9 16
10:10 1012 29.88 841 24.83 -0.1 31.9 52 -8.8 16.2
10:15 1012 29.88 841 24.83 -0.1 31.8 51 -9.1 15.7
10:20 1012 29.88 841 24.83 0 32 52 -8.7 16.3
10:25 1011 29.85 841 24.83 0.1 32.2 50 -9.1 15.7
10:30 1011 29.85 841 24.83 0.5 32.9 50 -8.7 16.3
10:35 1011 29.85 840 24.81 0.6 33.1 50 -8.6 16.5
10:40 1011 29.85 840 24.81 1.1 33.9 48 -8.9 16
10:45 1011 29.85 840 24.81 1.3 34.4 51 -7.7 18.1
10:50 1011 29.85 840 24.81 0.1 32.1 53 -8.4 16.9
10:55 1011 29.85 840 24.81 0.2 32.3 52 -8.6 16.5
11:00 1011 29.85 840 24.81 1 33.7 49 -8.5 16.7
11:05 1011 29.85 840 24.81 1.1 34 47 -9 15.9
11:10 1011 29.85 840 24.81 0.5 32.8 50 -8.7 16.4
11:15 1011 29.85 840 24.81 0.6 33.1 49 -9 15.9
11:20 1011 29.85 840 24.81 -0.2 31.6 54 -8.5 16.8
11:25 1011 29.85 840 24.81 0.5 32.9 50 -8.8 16.2
11:30 1011 29.85 840 24.81 1.4 34.6 46 -8.9 16
11:35 1010 29.83 840 24.81 1.9 35.3 47 -8.4 16.9
11:40 1010 29.83 839 24.78 1.9 35.5 45 -8.8 16.1
11:45 1010 29.83 839 24.78 2.4 36.4 45 -8.3 17
11:50 1010 29.83 839 24.78 2.2 36 47 -7.9 17.8
11:55 1010 29.83 839 24.78 1.9 35.4 47 -8.3 17
12:00 1010 29.83 839 24.78 2.3 36.2 47 -8 17.7
12:05 1010 29.83 839 24.78 2.6 36.6 46 -8 17.6
12:10 1010 29.83 839 24.78 2.7 36.8 44 -8.3 17.1
12:15 1009 29.8 839 24.78 2.3 36.1 49 -7.5 18.5
12:20 1009 29.8 838 24.75 2 35.5 49 -7.7 18.1
12:25 1009 29.8 838 24.75 0.9 33.6 50 -8.4 16.9
12:30 1009 29.8 838 24.75 2 35.6 47 -8.2 17.3
12:35 1009 29.8 838 24.75 1.3 34.4 50 -8.1 17.5
12:40 1009 29.8 838 24.75 1.6 35 49 -8.1 17.5
12:45 1009 29.8 838 24.75 2.5 36.4 49 -7.2 19.1
12:50 1008 29.77 838 24.75 1 33.8 52 -7.8 18
12:55 1008 29.77 837 24.72 1.1 34 51 -8 17.6
13:00 1008 29.77 837 24.72 2.1 35.7 46 -8.3 17
13:05 1008 29.77 837 24.72 2.8 37 45 -8 17.7
13:10 1008 29.77 837 24.72 3.5 38.3 42 -8.2 17.3
13:15 1008 29.77 837 24.72 3.4 38.1 44 -7.7 18.2
13:20 1008 29.77 837 24.72 3.5 38.3 43 -7.8 17.9
13:25 1008 29.77 837 24.72 2.7 36.8 44 -8.3 17.1
13:30 1008 29.77 837 24.72 3.1 37.6 44 -7.9 17.7
13:35 1007 29.74 837 24.72 2.8 37 46 -7.9 17.9
13:40 1007 29.74 836 24.69 3.2 37.8 45 -7.6 18.3
13:45 1007 29.74 836 24.69 2.9 37.3 44 -8 17.5
13:50 1007 29.74 836 24.69 3.1 37.5 48 -7 19.4
13:55 1007 29.74 836 24.69 3.4 38.2 46 -7.2 19.1
14:00 1007 29.74 836 24.69 3.7 38.7 43 -7.6 18.3
14:05 1007 29.74 836 24.69 3.6 38.4 44 -7.7 18.1
14:10 1006 29.71 836 24.69 3.8 38.8 43 -7.6 18.3
14:15 1006 29.71 836 24.69 3.8 38.8 44 -7.3 18.8
14:20 1006 29.71 835 24.66 3.2 37.7 45 -7.6 18.2
14:25 1006 29.71 835 24.66 3.6 38.5 45 -7.3 18.9
14:30 1006 29.71 835 24.66 4 39.2 42 -7.6 18.2
14:35 1006 29.71 835 24.66 4.3 39.7 40 -8.1 17.4
14:40 1006 29.71 835 24.66 4.6 40.3 40 -7.7 18.1
14:45 1006 29.71 835 24.66 4.7 40.4 41 -7.4 18.7
14:50 1006 29.71 835 24.66 5 40.9 39 -7.8 17.9
14:55 1006 29.71 835 24.66 5 41 40 -7.6 18.3
15:00 1006 29.71 835 24.66 5.1 41.2 38 -8.2 17.3
15:05 1006 29.71 835 24.66 5 41 41 -7.3 18.8
15:10 1005 29.68 835 24.66 4.7 40.4 40 -7.9 17.8
15:15 1005 29.68 835 24.66 4.5 40.1 40 -8 17.6
15:20 1005 29.68 835 24.66 5.1 41.2 40 -7.5 18.4
15:25 1005 29.68 834 24.63 5.3 41.5 37 -8.1 17.4
15:30 1005 29.68 834 24.63 5.2 41.4 38 -8 17.6
15:35 1005 29.68 834 24.63 4.9 40.9 41 -7.3 18.9
15:40 1005 29.68 834 24.63 4.8 40.6 41 -7.5 18.5
15:45 1005 29.68 834 24.63 4.7 40.5 39 -8 17.6
15:50 1005 29.68 834 24.63 4.8 40.6 39 -7.9 17.8
15:55 1005 29.68 834 24.63 5 41 39 -7.8 17.9
16:00 1005 29.68 834 24.63 4.9 40.9 39 -7.8 18
16:05 1005 29.68 834 24.63 4.6 40.2 40 -8.1 17.5
16:10 1005 29.68 834 24.63 4.2 39.6 43 -7.2 19
16:15 1005 29.68 834 24.63 4.2 39.5 42 -7.7 18.1
16:20 1005 29.68 834 24.63 4.4 39.9 43 -7.2 19.1
16:25 1004 29.65 834 24.63 3.9 39.1 43 -7.4 18.7
16:30 1004 29.65 834 24.63 3.8 38.9 43 -7.7 18.2
16:35 1004 29.65 834 24.63 4 39.3 44 -7.1 19.2
16:40 1004 29.65 834 24.63 3.4 38.1 46 -7.2 19
16:45 1004 29.65 833 24.6 2.9 37.3 45 -7.7 18.1
16:50 1004 29.65 833 24.6 3 37.3 46 -7.7 18.2
16:55 1004 29.65 833 24.6 2.8 37 47 -7.5 18.4
17:00 1004 29.65 833 24.6 2.2 35.9 49 -7.4 18.7
17:05 1004 29.65 833 24.6 1.9 35.4 49 -7.7 18.1
17:10 1004 29.65 833 24.6 1.9 35.5 50 -7.5 18.6
17:15 1004 29.65 833 24.6 1.5 34.8 52 -7.3 18.8
17:20 1004 29.65 833 24.6 1.5 34.6 52 -7.4 18.7
17:25 1004 29.65 833 24.6 1.6 34.8 51 -7.4 18.6
17:30 1004 29.65 833 24.6 1.5 34.7 52 -7.4 18.6
17:35 1004 29.65 833 24.6 1.6 34.9 52 -7.2 19.1
17:40 1004 29.65 833 24.6 1.7 35 53 -7 19.3
17:45 1004 29.65 833 24.6 1.6 35 52 -7.1 19.1
17:50 1004 29.65 833 24.6 1.6 34.8 53 -7.1 19.2
17:55 1004 29.65 833 24.6 1.4 34.5 54 -7 19.4
18:00 1004 29.65 833 24.6 1.2 34.1 55 -6.9 19.5
18:05 1004 29.65 833 24.6 1.2 34.1 55 -6.9 19.5
18:10 1004 29.65 833 24.6 1.2 34.2 55 -6.9 19.6
18:15 1004 29.65 833 24.6 1.2 34.1 54 -7 19.4
18:20 1003 29.62 833 24.6 1.1 33.9 54 -7.1 19.2
18:25 1004 29.65 833 24.6 1 33.8 53 -7.4 18.7
18:30 1004 29.65 833 24.6 1.1 34 53 -7.5 18.5
18:35 1003 29.62 833 24.6 1.5 34.7 52 -7.4 18.7
18:40 1003 29.62 833 24.6 1.4 34.6 51 -7.7 18.2
18:45 1003 29.62 833 24.6 1.3 34.3 53 -7.3 18.9
18:50 1003 29.62 833 24.6 1.3 34.3 55 -6.9 19.6
18:55 1003 29.62 833 24.6 1.4 34.4 54 -7 19.4
19:00 1003 29.62 833 24.6 1.2 34.1 55 -6.9 19.5
19:05 1003 29.62 832 24.57 0.5 32.9 56 -7.2 19
19:10 1003 29.62 832 24.57 0.1 32.2 63 -6 21.1
19:15 1003 29.62 832 24.57 -0.6 31 68 -5.8 21.6
19:20 1003 29.62 832 24.57 -1.1 30.1 70 -5.8 21.5
19:25 1003 29.62 832 24.57 -0.9 30.4 68 -6.1 21
19:30 1003 29.62 832 24.57 -0.7 30.7 67 -6.1 21
19:35 1003 29.62 832 24.57 -0.5 31 64 -6.5 20.2
19:40 1003 29.62 832 24.57 -0.2 31.6 65 -6 21.2
19:45 1003 29.62 832 24.57 -0.6 30.9 62 -7 19.5
19:50 1003 29.62 832 24.57 -0.1 31.8 59 -7.1 19.1
19:55 1003 29.62 832 24.57 -0.1 31.9 60 -7 19.4
20:00 1003 29.62 832 24.57 -0.4 31.3 62 -6.8 19.8
20:05 1003 29.62 832 24.57 -0.7 30.8 63 -6.8 19.8
20:10 1003 29.62 832 24.57 -0.7 30.7 65 -6.6 20.1
20:15 1003 29.62 832 24.57 -0.9 30.4 65 -6.6 20
20:20 1003 29.62 832 24.57 -1 30.2 65 -6.7 19.9
20:25 1003 29.62 832 24.57 -0.9 30.3 64 -6.9 19.6
20:30 1003 29.62 832 24.57 -0.7 30.8 63 -6.8 19.7
20:35 1003 29.62 832 24.57 -0.9 30.3 64 -6.9 19.6
20:40 1003 29.62 832 24.57 -1 30.1 64 -7.1 19.3
20:45 1003 29.62 832 24.57 -1 30.2 64 -7 19.3
20:50 1002 29.59 832 24.57 -0.9 30.4 63 -7 19.4
20:55 1002 29.59 832 24.57 -0.8 30.6 64 -6.8 19.7
21:00 1002 29.59 832 24.57 -0.7 30.7 63 -6.9 19.5
21:05 1002 29.59 832 24.57 -0.5 31.1 62 -7 19.5
21:10 1002 29.59 831 24.54 -0.6 31 64 -6.6 20.2
21:15 1002 29.59 831 24.54 -1 30.3 65 -6.6 20.1
21:20 1002 29.59 831 24.54 -1.1 30 66 -6.6 20
21:25 1002 29.59 831 24.54 -0.9 30.3 65 -6.6 20.1
21:30 1002 29.59 831 24.54 -1 30.2 66 -6.6 20.2
21:35 1002 29.59 831 24.54 -0.8 30.5 65 -6.7 20
21:40 1002 29.59 831 24.54 -0.5 31.1 63 -6.6 20.1
21:45 1002 29.59 831 24.54 -0.4 31.2 64 -6.5 20.3
21:50 1002 29.59 831 24.54 -0.3 31.4 63 -6.4 20.4
21:55 1002 29.59 831 24.54 -0.4 31.2 64 -6.5 20.3
22:00 1002 29.59 831 24.54 -0.6 31 65 -6.3 20.6
22:05 1002 29.59 831 24.54 -0.7 30.7 65 -6.4 20.4
22:10 1002 29.59 831 24.54 -0.8 30.5 66 -6.4 20.4
22:15 1002 29.59 831 24.54 -0.7 30.8 66 -6.2 20.8
22:20 1002 29.59 831 24.54 -0.5 31.2 66 -6 21.2
22:25 1002 29.59 831 24.54 -0.3 31.5 65 -6 21.2
22:30 1002 29.59 831 24.54 -0.4 31.3 67 -5.8 21.5
22:35 1002 29.59 831 24.54 -0.4 31.2 67 -5.7 21.7
22:40 1002 29.59 831 24.54 -0.5 31 69 -5.4 22.2
22:45 1002 29.59 831 24.54 -0.6 30.9 69 -5.5 22
22:50 1002 29.59 831 24.54 -0.9 30.4 70 -5.7 21.7
22:55 1002 29.59 831 24.54 -0.9 30.3 69 -5.9 21.5
23:00 1002 29.59 831 24.54 -1 30.1 70 -5.8 21.5
23:05 1002 29.59 831 24.54 -1.2 29.8 71 -5.8 21.5
23:10 1002 29.59 831 24.54 -1.1 29.9 71 -5.8 21.6
23:15 1002 29.59 831 24.54 -1.1 30 71 -5.7 21.8
23:20 1002 29.59 831 24.54 -1.1 30.1 71 -5.7 21.7
23:25 1002 29.59 831 24.54 -1 30.2 71 -5.5 22
23:30 1002 29.59 831 24.54 -1.3 29.6 73 -5.6 22
23:35 1002 29.59 831 24.54 -1.3 29.6 74 -5.4 22.3
23:40 1002 29.59 831 24.54 -1.4 29.4 75 -5.4 22.3
23:45 1002 29.59 831 24.54 -1.5 29.3 72 -5.8 21.5
23:50 1002 29.59 831 24.54 -1.3 29.7 73 -5.6 22
23:55 1002 29.59 831 24.54 -1.4 29.5 74 -5.5 22.2
24:00 1002 29.59 831 24.54 -1.9 28.6 75 -5.8 21.6